Keith, Illinois
Current Conditions -  °F | °C
As of 2:15 AM on Sunday 21 Dec 2014 (Local Time) from KFOA Reporting Station
Clear Clear  
Wind Chill: 26°   Ceiling: Unl
Heat Index: 32°   Visibility: 7mi
Dew Point: 28°   Wind: 6mph
Humidity: 87%   Direction: 130°SE
Pressure: 30.28"   Gusts: NA
Location:  38.5816°N, 88.4678°W
Report Text: KFOA 210815Z AUTO 13005KT 7SM CLR 00/M02 A3028 RMK AO2 T00001020
Loading
Personal Weather Stations






























Interactive Weather Map New forecast layout! Learn more

10-Day Weather Forecast

Advertisements
Track Severe Weather on mobile